Time;durP1;ratioP1;P1;durP2;ratioP2;P2;SDS_P1;SDS_P2;PMS_P1;PMS_P2;Temp;Humidity;BMP_temperature;BMP_pressure;BME280_temperature;BME280_humidity;BME280_pressure;Samples;Min_cycle;Max_cycle;Signal;HPM_P1;HPM_P2
2023/03/10 05:22:32;;;;;;;1.08;0.98;;;;;;;9.39;100.00;97814.22;5109145;27;20396;-69
2023/03/10 05:24:57;;;;;;;1.48;1.20;;;;;;;9.46;100.00;97809.63;5108057;28;20047;-70
2023/03/10 05:27:23;;;;;;;5.00;1.23;;;;;;;9.49;100.00;97811.84;5107934;28;20040;-69
2023/03/10 05:29:49;;;;;;;1.80;0.82;;;;;;;9.59;100.00;97813.97;5107732;28;20106;-69
2023/03/10 05:32:19;;;;;;;1.33;0.73;;;;;;;9.64;100.00;97803.44;5107434;28;20114;-68
2023/03/10 05:34:46;;;;;;;3.67;1.10;;;;;;;9.90;99.67;97801.44;5108250;28;20042;-68
2023/03/10 05:37:11;;;;;;;2.83;0.95;;;;;;;9.86;100.00;97795.78;5108130;28;20040;-57
2023/03/10 05:39:37;;;;;;;5.40;1.20;;;;;;;9.88;99.54;97801.66;5109537;28;20036;-59
2023/03/10 05:42:07;;;;;;;3.38;1.33;;;;;;;9.97;98.62;97794.16;5107829;28;20484;-56
2023/03/10 05:44:35;;;;;;;2.63;1.00;;;;;;;10.02;97.76;97800.44;5108150;28;20065;-60
2023/03/10 05:47:04;;;;;;;5.95;0.98;;;;;;;10.14;96.34;97796.97;5107679;28;20400;-68
2023/03/10 05:49:30;;;;;;;3.45;1.23;;;;;;;10.22;95.67;97808.09;5108026;28;20039;-68
2023/03/10 05:51:56;;;;;;;10.00;1.30;;;;;;;10.32;94.84;97791.59;5106211;28;20020;-66
2023/03/10 05:54:22;;;;;;;4.28;0.98;;;;;;;10.44;93.12;97792.41;5108636;28;20036;-66
2023/03/10 05:56:47;;;;;;;3.58;1.40;;;;;;;10.54;92.05;97781.97;5108311;28;20396;-67
2023/03/10 05:59:13;;;;;;;1.55;1.02;;;;;;;10.66;90.86;97781.97;5107094;28;20036;-67
2023/03/10 06:01:39;;;;;;;1.35;0.80;;;;;;;10.62;91.47;97788.78;5106770;28;20122;-68
2023/03/10 06:04:05;;;;;;;1.58;0.70;;;;;;;10.66;90.90;97805.94;5108429;28;20032;-69
2023/03/10 06:06:31;;;;;;;0.68;0.63;;;;;;;10.70;91.08;97796.44;5108207;28;20508;-69
2023/03/10 06:08:56;;;;;;;3.05;0.63;;;;;;;10.63;92.39;97797.59;5107053;28;20062;-68
2023/03/10 06:11:22;;;;;;;1.10;0.75;;;;;;;10.59;92.75;97794.59;5089718;28;20028;-68
2023/03/10 06:13:47;;;;;;;0.85;0.50;;;;;;;10.60;93.32;97774.91;5108195;28;20496;-67
2023/03/10 06:16:13;;;;;;;1.20;0.77;;;;;;;10.48;95.60;97793.56;5108103;28;20094;-69
2023/03/10 06:18:38;;;;;;;3.45;0.80;;;;;;;10.41;96.67;97789.38;5108054;28;20421;-67
2023/03/10 06:21:09;;;;;;;0.93;0.73;;;;;;;10.38;97.55;97785.34;5107789;28;20044;-68
2023/03/10 06:23:35;;;;;;;1.70;0.75;;;;;;;10.36;97.73;97790.06;5108023;28;20028;-68
2023/03/10 06:26:05;;;;;;;0.55;0.52;;;;;;;10.27;98.24;97770.19;5107886;28;20552;-67
2023/03/10 06:28:32;;;;;;;1.30;0.70;;;;;;;10.29;98.12;97773.41;5107988;28;20063;-67
2023/03/10 06:31:00;;;;;;;0.73;0.40;;;;;;;10.29;97.48;97774.22;5107643;28;20055;-67
2023/03/10 06:33:26;;;;;;;;;;;;;;;10.24;98.61;97763.50;5097395;28;20282;-67
2023/03/10 06:35:52;;;;;;;0.52;0.45;;;;;;;10.18;99.08;97759.06;5094160;28;19911;-68
2023/03/10 06:38:18;;;;;;;0.68;0.50;;;;;;;10.15;99.69;97775.47;5094091;28;20111;-69
2023/03/10 06:40:44;;;;;;;1.13;0.52;;;;;;;10.15;99.83;97764.00;5093665;28;20040;-68
2023/03/10 06:43:09;;;;;;;0.63;0.50;;;;;;;10.10;100.00;97763.88;5094071;28;20173;-67
2023/03/10 06:45:34;;;;;;;0.77;0.60;;;;;;;10.13;100.00;97763.44;5093924;28;20040;-68
2023/03/10 06:48:00;;;;;;;0.85;0.77;;;;;;;10.06;100.00;97775.00;5094026;28;20050;-67
2023/03/10 06:50:33;;;;;;;0.95;0.65;;;;;;;10.09;100.00;97773.72;5092581;28;20111;-68
2023/03/10 06:52:59;;;;;;;1.98;0.77;;;;;;;10.07;99.85;97776.63;5093635;28;20598;-68
2023/03/10 06:55:24;;;;;;;0.73;0.43;;;;;;;10.17;98.72;97760.09;5092440;28;20028;-69
2023/03/10 06:57:50;;;;;;;0.52;0.40;;;;;;;10.38;96.73;97765.91;5093766;28;20388;-69
2023/03/10 07:00:16;;;;;;;1.20;0.50;;;;;;;10.56;95.31;97760.44;5093751;28;20040;-69
2023/03/10 07:02:41;;;;;;;0.65;0.52;;;;;;;10.75;92.89;97761.13;5093517;28;20061;-69
2023/03/10 07:05:11;;;;;;;0.77;0.60;;;;;;;10.90;92.20;97752.66;5093672;28;20106;-68
2023/03/10 07:07:36;;;;;;;0.60;0.30;;;;;;;11.00;92.12;97753.66;5078546;28;20044;-69
2023/03/10 07:10:03;;;;;;;1.30;0.73;;;;;;;11.08;90.97;97755.97;5073552;28;20032;-70
2023/03/10 07:12:28;;;;;;;0.32;0.32;;;;;;;11.16;90.64;97767.28;5073123;28;20119;-68
2023/03/10 07:14:53;;;;;;;2.00;0.50;;;;;;;11.27;88.75;97790.41;5073420;28;20123;-67
2023/03/10 07:17:19;;;;;;;0.82;0.70;;;;;;;11.17;89.94;97795.56;5073247;28;20080;-68
2023/03/10 07:19:44;;;;;;;0.60;0.35;;;;;;;10.99;94.05;97799.19;5073242;28;20040;-68
2023/03/10 07:22:10;;;;;;;1.70;1.02;;;;;;;10.76;99.46;97822.16;5071662;28;20111;-68
2023/03/10 07:24:35;;;;;;;0.73;0.57;;;;;;;10.29;100.00;97823.97;5073113;28;20052;-67
2023/03/10 07:27:01;;;;;;;1.40;1.33;;;;;;;10.00;100.00;97829.09;5073013;28;20083;-68
2023/03/10 07:29:26;;;;;;;0.90;0.60;;;;;;;9.75;100.00;97844.41;5073231;28;20036;-68
2023/03/10 07:31:52;;;;;;;3.30;0.50;;;;;;;9.57;100.00;97847.09;5072910;28;20064;-68
2023/03/10 07:34:17;;;;;;;0.50;0.50;;;;;;;9.41;100.00;97845.88;5073029;28;20040;-68
2023/03/10 07:36:43;;;;;;;0.85;0.32;;;;;;;9.25;100.00;97863.22;5072774;28;20101;-68
2023/03/10 07:39:09;;;;;;;0.30;0.30;;;;;;;9.13;100.00;97871.16;5072754;28;20044;-58
2023/03/10 07:41:34;;;;;;;0.68;0.52;;;;;;;8.91;100.00;97876.06;5072360;28;20043;-60
2023/03/10 07:44:00;;;;;;;1.73;0.35;;;;;;;8.87;100.00;97861.63;5071603;28;20124;-60
2023/03/10 07:46:25;;;;;;;1.48;0.65;;;;;;;8.95;100.00;97861.31;5072580;28;20032;-60
2023/03/10 07:48:51;;;;;;;1.02;0.50;;;;;;;8.79;100.00;97887.63;5072550;28;20062;-59
2023/03/10 07:51:18;;;;;;;2.00;0.70;;;;;;;8.70;100.00;97890.56;5072167;28;20474;-66
2023/03/10 07:53:43;;;;;;;1.73;0.73;;;;;;;8.61;100.00;97899.84;5072431;28;20067;-66
2023/03/10 07:56:12;;;;;;;4.78;1.08;;;;;;;8.33;100.00;97905.53;5072369;28;20095;-67
2023/03/10 07:58:38;;;;;;;2.42;1.05;;;;;;;8.28;100.00;97912.50;5072446;28;20105;-67
2023/03/10 08:01:05;;;;;;;1.33;0.63;;;;;;;8.15;100.00;97918.72;5072009;28;20529;-67
2023/03/10 08:03:32;;;;;;;4.40;1.05;;;;;;;8.05;100.00;97916.53;5072444;28;20090;-67
2023/03/10 08:05:59;;;;;;;2.92;1.00;;;;;;;7.95;100.00;97918.81;5072214;28;20097;-67
2023/03/10 08:08:25;;;;;;;2.90;1.25;;;;;;;7.92;100.00;97919.25;5072236;28;20406;-67
2023/03/10 08:11:01;;;;;;;10.55;1.60;;;;;;;7.87;100.00;97911.94;5071947;28;20641;-67
2023/03/10 08:13:27;;;;;;;2.33;1.27;;;;;;;7.95;100.00;97924.13;5072089;28;20166;-67
2023/03/10 08:15:52;;;;;;;6.90;1.45;;;;;;;8.01;100.00;97909.19;5071964;28;20509;-67
2023/03/10 08:18:18;;;;;;;3.40;1.30;;;;;;;8.06;100.00;97914.69;5072114;28;20119;-67
2023/03/10 08:20:43;;;;;;;3.08;0.90;;;;;;;8.05;100.00;97902.47;5070180;28;20048;-66
2023/03/10 08:23:09;;;;;;;5.57;0.90;;;;;;;8.09;100.00;97911.63;5071918;28;20044;-66
2023/03/10 08:25:36;;;;;;;3.30;1.20;;;;;;;8.09;100.00;97906.31;5071767;28;20036;-65
2023/03/10 08:28:01;;;;;;;3.63;1.07;;;;;;;8.12;100.00;97913.84;5054302;28;20037;-65
2023/03/10 08:30:26;;;;;;;0.95;0.82;;;;;;;8.17;100.00;97921.97;5070591;28;20040;-66
2023/03/10 08:32:52;;;;;;;1.13;0.60;;;;;;;8.15;100.00;97916.06;5071546;28;20462;-66
2023/03/10 08:35:18;;;;;;;0.90;0.80;;;;;;;8.20;100.00;97921.53;5071575;28;20047;-65
2023/03/10 08:37:43;;;;;;;3.33;0.65;;;;;;;8.23;100.00;97918.47;5071916;28;20037;-65
2023/03/10 08:40:11;;;;;;;2.10;1.00;;;;;;;8.27;100.00;97938.22;5071697;28;20436;-66
2023/03/10 08:42:37;;;;;;;1.70;1.00;;;;;;;8.28;100.00;97917.78;5071461;28;20397;-65
2023/03/10 08:45:03;;;;;;;1.45;0.70;;;;;;;8.31;100.00;97920.03;5070403;28;20085;-67
2023/03/10 08:47:29;;;;;;;3.40;0.80;;;;;;;8.36;100.00;97925.53;5071374;28;20032;-65
2023/03/10 08:49:54;;;;;;;0.45;0.40;;;;;;;8.36;100.00;97928.19;5070126;28;20052;-66
2023/03/10 08:52:20;;;;;;;4.63;0.82;;;;;;;8.36;100.00;97917.59;5071232;28;20066;-66
2023/03/10 08:54:45;;;;;;;0.80;0.80;;;;;;;8.35;100.00;97914.13;5071432;28;20047;-66
2023/03/10 08:57:10;;;;;;;3.53;1.10;;;;;;;8.37;100.00;97921.88;5071144;28;20052;-66
2023/03/10 08:59:36;;;;;;;2.55;1.00;;;;;;;8.35;100.00;97918.59;5071345;28;20036;-66
2023/03/10 09:02:01;;;;;;;1.95;0.90;;;;;;;8.42;100.00;97932.66;5069439;28;20052;-66
2023/03/10 09:04:27;;;;;;;2.15;1.00;;;;;;;8.48;100.00;97930.97;5071156;28;20143;-66
2023/03/10 09:06:52;;;;;;;5.30;1.20;;;;;;;8.45;100.00;97921.59;5069832;28;20052;-63
2023/03/10 09:09:18;;;;;;;2.65;1.55;;;;;;;8.48;100.00;97930.97;5070107;28;20040;-65
2023/03/10 09:11:43;;;;;;;2.40;1.05;;;;;;;8.44;100.00;97925.28;5069665;28;20033;-67
2023/03/10 09:14:10;;;;;;;4.95;1.30;;;;;;;8.49;100.00;97928.09;5070135;28;20033;-67
2023/03/10 09:16:36;;;;;;;4.35;1.00;;;;;;;8.51;100.00;97930.53;5071209;28;20054;-66
2023/03/10 09:19:02;;;;;;;2.72;1.00;;;;;;;8.58;100.00;97932.09;5071070;28;20572;-64
2023/03/10 09:21:29;;;;;;;8.13;1.50;;;;;;;8.63;100.00;97929.63;5070759;28;20036;-66
2023/03/10 09:23:54;;;;;;;5.97;1.33;;;;;;;8.78;100.00;97923.97;5071186;28;20035;-66
2023/03/10 09:26:20;;;;;;;2.30;1.27;;;;;;;8.81;100.00;97926.22;5071057;28;20455;-66
2023/03/10 09:28:48;;;;;;;3.13;1.50;;;;;;;8.83;100.00;97931.28;5071094;28;20094;-65
2023/03/10 09:31:18;;;;;;;;;;;;;;;8.87;100.00;97937.81;5069844;28;20033;-66
2023/03/10 09:33:44;;;;;;;2.53;1.40;;;;;;;8.90;100.00;97927.53;5069680;28;19916;-66
2023/03/10 09:36:09;;;;;;;3.22;1.50;;;;;;;9.00;100.00;97931.53;5070876;28;20021;-67
2023/03/10 09:38:36;;;;;;;4.57;1.00;;;;;;;9.00;100.00;97929.72;5069800;28;20051;-66
2023/03/10 09:41:04;;;;;;;4.30;2.08;;;;;;;9.06;100.00;97939.44;5070644;28;20470;-67
2023/03/10 09:43:36;;;;;;;2.85;1.23;;;;;;;9.11;100.00;97925.50;5070954;28;20501;-65
2023/03/10 09:46:17;;;;;;;4.85;1.20;;;;;;;9.12;100.00;97925.28;5070736;28;20039;-65
2023/03/10 09:49:02;;;;;;;2.40;0.98;;;;;;;9.11;100.00;97936.13;5069587;28;20139;-65
2023/03/10 09:51:28;;;;;;;3.58;0.95;;;;;;;9.07;100.00;97930.47;5070630;28;20029;-66
2023/03/10 09:54:24;;;;;;;6.13;1.38;;;;;;;9.08;100.00;97932.06;5070767;28;20532;-65
2023/03/10 09:56:50;;;;;;;3.42;1.15;;;;;;;9.13;100.00;97942.03;5069437;28;20040;-64
2023/03/10 09:59:20;;;;;;;1.00;0.80;;;;;;;9.15;100.00;97939.97;5069706;28;20097;-66
2023/03/10 10:01:48;;;;;;;5.88;1.20;;;;;;;9.11;100.00;97944.09;5070463;28;20466;-66
2023/03/10 10:04:24;;;;;;;1.75;1.05;;;;;;;9.13;100.00;97934.88;5070822;28;20468;-66
2023/03/10 10:06:50;;;;;;;4.75;1.40;;;;;;;9.13;100.00;97944.72;5070689;28;20032;-65
2023/03/10 10:09:42;;;;;;;5.78;1.45;;;;;;;9.10;100.00;97945.13;5074214;28;20093;-66
2023/03/10 10:12:12;;;;;;;2.13;1.35;;;;;;;9.05;100.00;97955.59;5074356;28;20557;-64
2023/03/10 10:14:38;;;;;;;7.70;1.77;;;;;;;9.01;100.00;97949.09;5074382;28;20046;-68
2023/03/10 10:17:46;;;;;;;3.95;1.17;;;;;;;9.07;100.00;97964.16;5072956;28;20044;-66
2023/03/10 10:20:37;;;;;;;0.85;0.80;;;;;;;9.09;100.00;97946.97;5073973;28;20060;-65
2023/03/10 10:23:18;;;;;;;3.10;1.08;;;;;;;9.18;100.00;97968.75;5074168;28;20040;-67
2023/03/10 10:25:44;;;;;;;4.55;1.27;;;;;;;9.23;100.00;97952.97;5074096;28;20080;-66
2023/03/10 10:28:24;;;;;;;2.33;1.00;;;;;;;9.47;100.00;97953.94;5074151;28;20052;-66
2023/03/10 10:30:50;;;;;;;3.55;0.90;;;;;;;9.75;100.00;97964.03;5073598;28;20032;-65
2023/03/10 10:33:15;;;;;;;8.32;1.00;;;;;;;10.00;100.00;97950.63;5073863;28;20036;-66
2023/03/10 10:35:45;;;;;;;4.05;1.33;;;;;;;10.09;100.00;97949.28;5074000;28;20087;-67
2023/03/10 10:38:10;;;;;;;6.78;1.58;;;;;;;10.00;100.00;97954.09;5073807;28;20044;-66
2023/03/10 10:40:48;;;;;;;3.78;1.10;;;;;;;9.86;100.00;97955.31;5073824;28;20066;-67
2023/03/10 10:43:17;;;;;;;;;;;;;;;9.83;100.00;97955.75;5074374;28;20040;-65
2023/03/10 10:45:43;;;;;;;3.83;1.73;;;;;;;9.90;100.00;97958.31;5073704;28;19913;-63
2023/03/10 10:48:45;;;;;;;7.93;1.77;;;;;;;9.98;100.00;97964.16;5073714;28;20037;-65
2023/03/10 10:51:26;;;;;;;11.23;1.58;;;;;;;9.93;100.00;97956.03;5072022;28;20086;-67
2023/03/10 10:53:51;;;;;;;7.00;1.63;;;;;;;10.14;100.00;97962.72;5073811;28;20453;-67
2023/03/10 10:56:18;;;;;;;7.82;1.60;;;;;;;10.24;100.00;97967.53;5073557;28;20068;-67
2023/03/10 10:58:59;;;;;;;7.18;1.55;;;;;;;10.20;100.00;97961.00;5073553;28;20036;-66
2023/03/10 11:01:24;;;;;;;4.05;1.00;;;;;;;10.20;100.00;97979.63;5073209;28;20068;-66
2023/03/10 11:04:04;;;;;;;6.30;1.30;;;;;;;10.10;100.00;97972.19;5086790;28;20028;-66
2023/03/10 11:06:36;;;;;;;6.95;1.30;;;;;;;10.00;100.00;97978.03;5093648;28;20039;-67
2023/03/10 11:09:08;;;;;;;8.25;1.60;;;;;;;10.05;100.00;97988.84;5093654;28;20507;-67
2023/03/10 11:12:04;;;;;;;5.25;1.52;;;;;;;9.97;100.00;97983.78;5093194;28;20056;-67
2023/03/10 11:15:02;;;;;;;7.27;1.20;;;;;;;9.88;100.00;97974.50;5093569;28;20038;-67
2023/03/10 11:17:34;;;;;;;2.92;1.17;;;;;;;9.74;100.00;97978.38;5093425;28;20281;-67
2023/03/10 11:20:24;;;;;;;6.15;1.50;;;;;;;9.72;100.00;97989.25;5093298;28;20500;-66
2023/03/10 11:23:07;;;;;;;6.72;1.52;;;;;;;9.45;100.00;97940.03;5093172;28;20036;-65
2023/03/10 11:26:01;;;;;;;2.80;1.20;;;;;;;9.71;100.00;97992.09;5093065;28;20036;-65
2023/03/10 11:28:55;;;;;;;8.73;1.50;;;;;;;9.69;100.00;97986.19;5092038;28;20040;-66
2023/03/10 11:31:58;;;;;;;7.55;1.00;;;;;;;9.60;100.00;97992.84;5091356;28;20036;-66
2023/03/10 11:34:34;;;;;;;5.90;1.45;;;;;;;9.59;100.00;97984.06;5093052;28;20099;-65
2023/03/10 11:37:20;;;;;;;2.03;1.33;;;;;;;9.63;100.00;97987.09;5091834;28;20046;-65
2023/03/10 11:40:18;;;;;;;2.67;1.13;;;;;;;9.62;100.00;97980.16;5093091;28;20377;-64
2023/03/10 11:43:07;;;;;;;12.43;1.98;;;;;;;9.64;100.00;97962.94;5092749;28;20593;-66
2023/03/10 11:45:45;;;;;;;14.07;1.60;;;;;;;9.71;100.00;97968.16;5091623;28;20163;-66
2023/03/10 11:48:25;;;;;;;5.63;1.05;;;;;;;9.74;100.00;97978.38;5092933;28;20034;-64
2023/03/10 11:50:54;;;;;;;4.93;1.25;;;;;;;9.76;100.00;97976.28;5092507;28;20032;-65
2023/03/10 11:53:29;;;;;;;6.50;1.42;;;;;;;9.80;100.00;97980.16;5092761;28;20039;-65
2023/03/10 11:55:56;;;;;;;4.95;1.65;;;;;;;9.81;100.00;97973.78;5092675;28;20036;-66
2023/03/10 11:58:42;;;;;;;10.80;2.40;;;;;;;9.68;100.00;97969.44;5091442;28;20422;-67
2023/03/10 12:01:12;;;;;;;4.93;1.13;;;;;;;9.59;100.00;97960.16;5092234;28;20127;-65
2023/03/10 12:03:47;;;;;;;3.60;1.10;;;;;;;9.53;100.00;97963.69;5092558;28;20110;-66
2023/03/10 12:06:34;;;;;;;12.80;1.67;;;;;;;9.46;100.00;97971.75;5092512;28;20036;-66
2023/03/10 12:09:01;;;;;;;6.53;1.33;;;;;;;9.41;100.00;97968.91;5092584;28;20031;-66
2023/03/10 12:11:28;;;;;;;2.33;1.27;;;;;;;9.43;100.00;97953.56;5092169;28;20040;-66
2023/03/10 12:14:02;;;;;;;4.63;1.00;;;;;;;9.42;100.00;97967.88;5092342;28;20063;-65
2023/03/10 12:16:33;;;;;;;6.13;1.48;;;;;;;9.36;100.00;97971.41;5092217;28;20054;-63
2023/03/10 12:18:58;;;;;;;1.92;1.38;;;;;;;9.38;100.00;97973.84;5092323;28;20115;-65
2023/03/10 12:21:31;;;;;;;3.67;1.02;;;;;;;9.34;100.00;97975.34;5091738;28;20040;-63
2023/03/10 12:24:02;;;;;;;3.95;0.80;;;;;;;9.30;100.00;97974.16;5092296;28;20515;-66
2023/03/10 12:26:36;;;;;;;5.38;0.65;;;;;;;9.18;100.00;97976.72;5092046;28;20032;-66
2023/03/10 12:29:20;;;;;;;8.65;1.50;;;;;;;9.17;100.00;97986.53;5090759;28;20056;-66
2023/03/10 12:31:53;;;;;;;0.82;0.70;;;;;;;9.07;100.00;97969.47;5091257;28;20028;-66
2023/03/10 12:34:21;;;;;;;1.50;0.60;;;;;;;9.13;100.00;97981.88;5092110;28;20040;-66
2023/03/10 12:36:51;;;;;;;1.65;0.85;;;;;;;9.09;100.00;97980.69;5091875;28;20036;-66
2023/03/10 12:39:39;;;;;;;5.32;1.08;;;;;;;9.06;100.00;97989.06;5091930;28;20027;-65
2023/03/10 12:42:20;;;;;;;3.72;0.80;;;;;;;8.97;100.00;97993.84;5091634;28;20471;-65
2023/03/10 12:44:52;;;;;;;1.23;0.75;;;;;;;8.89;100.00;97984.31;5091832;28;20035;-64
2023/03/10 12:47:44;;;;;;;0.40;0.40;;;;;;;8.90;100.00;97987.78;5091771;28;20032;-68
2023/03/10 12:50:31;;;;;;;2.50;0.95;;;;;;;8.83;100.00;97987.03;5091505;28;20040;-66
2023/03/10 12:53:06;;;;;;;0.40;0.40;;;;;;;8.69;100.00;97984.50;5091637;28;20032;-64
2023/03/10 12:55:32;;;;;;;0.70;0.60;;;;;;;8.69;100.00;97981.84;5092220;28;20282;-65
2023/03/10 12:58:21;;;;;;;1.73;0.50;;;;;;;8.65;100.00;97990.44;5092010;28;20396;-66
2023/03/10 13:00:59;;;;;;;1.60;0.70;;;;;;;8.66;100.00;97979.59;5091283;28;20040;-65
2023/03/10 13:03:30;;;;;;;1.60;0.65;;;;;;;8.63;100.00;97969.41;5091549;28;20044;-66
2023/03/10 13:06:17;;;;;;;0.93;0.60;;;;;;;8.61;100.00;97968.84;5091547;28;20040;-66
2023/03/10 13:09:00;;;;;;;9.57;1.23;;;;;;;8.58;100.00;97971.91;5091581;28;20129;-66
2023/03/10 13:11:35;;;;;;;1.52;0.70;;;;;;;8.52;100.00;97985.22;5091159;28;20081;-66
2023/03/10 13:14:23;;;;;;;1.23;0.47;;;;;;;8.45;100.00;97990.56;5091343;28;20043;-66
2023/03/10 13:16:59;;;;;;;1.50;0.50;;;;;;;8.41;100.00;97989.34;5090001;28;20620;-66
2023/03/10 13:19:31;;;;;;;3.30;0.38;;;;;;;8.35;100.00;98006.97;5091374;28;20048;-67
2023/03/10 13:21:57;;;;;;;1.13;0.43;;;;;;;8.37;100.00;97999.59;5090810;28;20481;-67
2023/03/10 13:24:25;;;;;;;2.38;0.60;;;;;;;8.36;100.00;97999.81;5091328;28;20024;-66
2023/03/10 13:27:14;;;;;;;0.40;0.40;;;;;;;8.36;100.00;98007.78;5091190;28;20404;-66
2023/03/10 13:30:11;;;;;;;0.30;0.30;;;;;;;8.32;100.00;97994.09;5091237;28;20107;-66
2023/03/10 13:32:36;;;;;;;0.63;0.60;;;;;;;8.38;100.00;98021.63;5091009;28;20421;-66
2023/03/10 13:35:20;;;;;;;0.30;0.30;;;;;;;8.37;100.00;98014.72;5073202;28;20039;-66
2023/03/10 13:38:25;;;;;;;1.63;0.75;;;;;;;8.44;100.00;98028.75;5091500;28;20567;-67
2023/03/10 13:41:01;;;;;;;1.42;0.60;;;;;;;8.46;100.00;98033.84;5081744;28;20044;-66
2023/03/10 13:43:32;;;;;;;0.65;0.43;;;;;;;8.43;100.00;98049.16;5071890;28;20113;-66
2023/03/10 13:45:58;;;;;;;1.00;0.90;;;;;;;8.40;100.00;98038.16;5074800;28;20473;-67
2023/03/10 13:48:26;;;;;;;2.63;0.80;;;;;;;8.37;100.00;98038.59;5075028;28;20119;-66
2023/03/10 13:51:27;;;;;;;2.90;1.00;;;;;;;8.40;100.00;98052.22;5074550;28;20103;-66
2023/03/10 13:53:56;;;;;;;0.80;0.73;;;;;;;8.33;100.00;98030.19;5074652;28;20440;-67
2023/03/10 13:56:33;;;;;;;2.80;1.10;;;;;;;8.30;100.00;98035.94;5074659;28;20111;-67
2023/03/10 13:59:05;;;;;;;2.50;1.05;;;;;;;8.32;100.00;98038.38;5074578;28;20060;-67
2023/03/10 14:01:34;;;;;;;1.48;1.00;;;;;;;8.32;100.00;98049.78;5074396;28;20524;-67
2023/03/10 14:04:10;;;;;;;2.10;1.08;;;;;;;8.32;100.00;98046.31;5074623;28;20434;-67
2023/03/10 14:06:35;;;;;;;5.70;1.30;;;;;;;8.34;100.00;98060.19;5076409;28;20039;-67
2023/03/10 14:09:22;;;;;;;3.53;0.90;;;;;;;8.35;100.00;98073.28;5074491;28;20036;-67
2023/03/10 14:11:49;;;;;;;1.85;1.20;;;;;;;8.36;100.00;98077.56;5075187;28;20033;-67
2023/03/10 14:14:37;;;;;;;1.95;0.98;;;;;;;8.34;100.00;98089.38;5079081;28;20056;-67
2023/03/10 14:17:30;;;;;;;2.72;1.20;;;;;;;8.39;100.00;98094.88;5072742;28;20507;-68
2023/03/10 14:19:56;;;;;;;1.08;0.90;;;;;;;8.37;100.00;98105.72;5073170;28;20024;-67
2023/03/10 14:22:36;;;;;;;3.15;1.23;;;;;;;8.38;100.00;98106.53;5073767;28;20036;-67
2023/03/10 14:25:13;;;;;;;1.98;0.80;;;;;;;8.34;100.00;98108.75;5074168;28;20036;-67
2023/03/10 14:27:41;;;;;;;2.38;1.05;;;;;;;8.37;100.00;98110.22;5074051;28;20174;-67
2023/03/10 14:30:20;;;;;;;3.47;1.10;;;;;;;8.41;100.00;98114.06;5074273;28;20029;-67
2023/03/10 14:32:45;;;;;;;1.40;0.88;;;;;;;8.39;100.00;98134.69;5073784;28;20111;-66
2023/03/10 14:35:12;;;;;;;3.88;1.20;;;;;;;8.34;100.00;98135.28;5073972;28;20032;-66
2023/03/10 14:37:38;;;;;;;1.50;1.20;;;;;;;8.39;100.00;98155.91;5074128;28;20044;-67
2023/03/10 14:40:04;;;;;;;1.50;1.05;;;;;;;8.39;100.00;98155.91;5074498;28;20036;-67
2023/03/10 14:42:30;;;;;;;1.73;1.13;;;;;;;8.41;100.00;98170.59;5073699;28;20041;-66
2023/03/10 14:45:03;;;;;;;1.25;0.82;;;;;;;8.35;100.00;98179.41;5073876;28;20109;-66
2023/03/10 14:47:32;;;;;;;1.40;0.63;;;;;;;8.30;100.00;98170.41;5072459;28;20064;-67
2023/03/10 14:49:58;;;;;;;1.45;0.73;;;;;;;8.24;100.00;98176.53;5074297;28;20028;-67
2023/03/10 14:52:24;;;;;;;1.10;0.60;;;;;;;8.26;100.00;98177.94;5072134;28;20480;-66
2023/03/10 14:54:49;;;;;;;2.97;0.82;;;;;;;8.15;100.00;98190.03;5073599;28;20128;-67
2023/03/10 14:57:19;;;;;;;1.15;0.98;;;;;;;8.08;100.00;98204.31;5072320;28;20064;-67
2023/03/10 14:59:45;;;;;;;2.50;0.65;;;;;;;8.04;100.00;98201.25;5073855;28;20041;-67
2023/03/10 15:02:21;;;;;;;1.27;0.88;;;;;;;8.05;100.00;98207.38;5073307;28;20060;-66
2023/03/10 15:04:46;;;;;;;1.30;0.70;;;;;;;8.11;100.00;98215.31;5073448;28;20490;-67
2023/03/10 15:07:14;;;;;;;1.48;1.05;;;;;;;8.08;100.00;98228.97;5073680;28;20029;-67
2023/03/10 15:09:40;;;;;;;4.88;0.98;;;;;;;8.09;100.00;98246.53;5072415;28;20366;-67
2023/03/10 15:12:06;;;;;;;3.28;0.93;;;;;;;8.09;100.00;98245.72;5071810;28;20478;-68
2023/03/10 15:14:31;;;;;;;1.88;0.95;;;;;;;8.04;100.00;98241.03;5073297;28;20140;-67
2023/03/10 15:16:56;;;;;;;1.48;1.02;;;;;;;8.07;100.00;98255.72;5073260;28;20086;-65
2023/03/10 15:19:25;;;;;;;2.67;1.13;;;;;;;8.06;100.00;98249.59;5073242;28;20072;-66
2023/03/10 15:21:50;;;;;;;2.47;1.10;;;;;;;8.07;100.00;98256.53;5072840;28;20033;-67
2023/03/10 15:24:16;;;;;;;3.40;1.10;;;;;;;8.07;100.00;98250.41;5073199;28;20451;-67
2023/03/10 15:26:42;;;;;;;8.57;1.75;;;;;;;8.04;100.00;98266.75;5055036;28;20067;-68
2023/03/10 15:29:12;;;;;;;1.88;1.25;;;;;;;8.09;100.00;98274.91;5073274;28;20083;-66
2023/03/10 15:31:37;;;;;;;2.90;1.05;;;;;;;8.20;96.01;98268.16;5072771;28;20032;-66
2023/03/10 15:34:04;;;;;;;2.78;1.38;;;;;;;8.18;98.37;98271.00;5072946;28;20051;-67
2023/03/10 15:36:29;;;;;;;2.78;1.55;;;;;;;8.21;94.75;98286.50;5072717;28;20029;-68
2023/03/10 15:38:55;;;;;;;3.72;0.90;;;;;;;8.12;96.56;98306.31;5072926;28;20542;-68
2023/03/10 15:41:20;;;;;;;1.02;0.80;;;;;;;8.07;94.89;98322.00;5072518;28;20405;-67
2023/03/10 15:43:45;;;;;;;1.95;1.23;;;;;;;7.89;91.95;98320.78;5072713;28;20477;-67
2023/03/10 15:46:11;;;;;;;1.75;1.10;;;;;;;7.83;95.93;98315.47;5071421;28;20040;-67
2023/03/10 15:48:36;;;;;;;2.70;1.30;;;;;;;7.75;97.31;98323.59;5072633;28;20111;-68
2023/03/10 15:51:11;;;;;;;1.63;0.70;;;;;;;7.75;97.87;98320.94;5072213;28;20037;-66
2023/03/10 15:53:37;;;;;;;0.73;0.73;;;;;;;7.75;98.06;98328.91;5072494;28;20047;-69
2023/03/10 15:56:07;;;;;;;1.48;0.77;;;;;;;7.75;97.64;98316.47;5072385;28;20474;-68
2023/03/10 15:58:32;;;;;;;5.43;1.08;;;;;;;7.84;97.83;98311.81;5072337;28;20044;-66
2023/03/10 16:00:58;;;;;;;2.90;1.45;;;;;;;7.91;94.31;98322.41;5070719;28;20029;-68
2023/03/10 16:03:23;;;;;;;2.67;1.20;;;;;;;7.99;92.77;98314.25;5072317;28;20507;-65
2023/03/10 16:05:49;;;;;;;5.00;1.40;;;;;;;8.02;87.72;98314.69;5071416;28;20041;-65
2023/03/10 16:08:14;;;;;;;3.17;1.00;;;;;;;8.19;83.88;98308.94;5070866;28;20040;-65
2023/03/10 16:10:50;;;;;;;1.63;0.70;;;;;;;8.25;81.58;98308.94;5071968;28;20043;-66
2023/03/10 16:13:16;;;;;;;2.17;0.95;;;;;;;8.24;82.82;98296.72;5072183;28;20040;-66
2023/03/10 16:15:41;;;;;;;6.80;1.40;;;;;;;8.24;83.76;98288.75;5071962;28;20049;-66
2023/03/10 16:18:06;;;;;;;5.07;1.40;;;;;;;8.21;83.50;98288.34;5072039;28;20036;-66
2023/03/10 16:20:32;;;;;;;11.07;1.67;;;;;;;8.21;82.08;98299.75;5054275;28;20444;-67
2023/03/10 16:22:57;;;;;;;2.00;1.15;;;;;;;8.21;81.15;98291.81;5071792;28;20120;-66
2023/03/10 16:25:23;;;;;;;6.70;1.27;;;;;;;8.22;83.55;98309.38;5054066;28;20044;-66
2023/03/10 16:27:49;;;;;;;4.82;1.50;;;;;;;8.18;84.37;98331.19;5071936;28;20499;-66
2023/03/10 16:30:16;;;;;;;5.10;1.52;;;;;;;8.11;85.58;98328.53;5071742;28;20522;-66
2023/03/10 16:32:49;;;;;;;2.83;1.07;;;;;;;8.11;88.74;98336.50;5070948;28;20068;-66
2023/03/10 16:35:15;;;;;;;3.03;1.30;;;;;;;8.12;86.34;98362.00;5078084;28;20123;-67
2023/03/10 16:37:41;;;;;;;1.95;1.40;;;;;;;8.12;86.33;98362.00;5080435;28;20119;-67
2023/03/10 16:40:07;;;;;;;1.70;1.13;;;;;;;8.13;85.26;98353.81;5072200;28;20131;-61
2023/03/10 16:42:35;;;;;;;3.22;1.50;;;;;;;8.12;82.30;98378.72;5071847;28;20043;-66
2023/03/10 16:45:04;;;;;;;1.83;0.75;;;;;;;8.01;83.35;98384.63;5072174;28;20082;-66
2023/03/10 16:47:30;;;;;;;3.20;1.38;;;;;;;7.96;82.79;98389.72;5071363;28;20425;-66
2023/03/10 16:49:55;;;;;;;4.10;1.15;;;;;;;7.91;81.49;98380.75;5072165;28;20028;-66
2023/03/10 16:52:21;;;;;;;3.83;1.05;;;;;;;7.86;81.41;98354.81;5071861;28;20036;-66
2023/03/10 16:54:46;;;;;;;3.47;1.05;;;;;;;7.86;81.14;98365.44;5072061;28;20052;-67
2023/03/10 16:57:13;;;;;;;0.85;0.68;;;;;;;7.88;79.81;98361.53;5072074;28;20051;-67
2023/03/10 16:59:40;;;;;;;3.55;1.15;;;;;;;7.80;80.38;98369.69;5070887;28;20056;-67
2023/03/10 17:02:12;;;;;;;1.92;1.13;;;;;;;7.78;82.43;98382.34;5071838;28;20037;-67
2023/03/10 17:04:37;;;;;;;3.15;0.88;;;;;;;7.63;86.81;98389.66;5072016;28;20043;-67
2023/03/10 17:07:03;;;;;;;1.30;0.98;;;;;;;7.54;87.16;98396.13;5070705;28;20032;-67
2023/03/10 17:09:28;;;;;;;0.82;0.77;;;;;;;7.51;86.61;98391.22;5071942;28;20068;-66
2023/03/10 17:11:53;;;;;;;4.70;1.42;;;;;;;7.47;86.68;98395.28;5070721;28;20027;-66